createdAt,value
2023-03-08T00:03:48.373Z,0
2023-03-08T00:08:47.386Z,0
2023-03-08T00:13:46.750Z,0
2023-03-08T00:18:47.036Z,0
2023-03-08T00:23:46.504Z,0
2023-03-08T00:28:47.803Z,0
2023-03-08T00:33:54.380Z,0
2023-03-08T00:38:54.314Z,0
2023-03-08T00:43:54.292Z,0
2023-03-08T00:48:52.094Z,0
2023-03-08T00:53:52.160Z,0
2023-03-08T00:58:51.994Z,0
2023-03-08T01:03:51.104Z,0
2023-03-08T01:08:51.016Z,0
2023-03-08T01:13:51.808Z,0
2023-03-08T01:18:49.223Z,0
2023-03-08T01:23:48.842Z,0
2023-03-08T01:28:48.966Z,0
2023-03-08T01:33:37.643Z,0
2023-03-08T01:38:37.290Z,0
2023-03-08T01:43:37.107Z,0
2023-03-08T01:48:36.990Z,0
2023-03-08T01:53:37.773Z,0
2023-03-08T01:58:34.502Z,0
2023-03-08T01:59:55.518Z,0
2023-03-08T02:04:55.100Z,0
2023-03-08T02:09:56.082Z,0
2023-03-08T02:14:53.278Z,0
2023-03-08T02:19:52.727Z,0
2023-03-08T02:24:52.527Z,0
2023-03-08T02:29:52.066Z,0
2023-03-08T02:34:50.785Z,0
2023-03-08T02:39:51.109Z,0
2023-03-08T02:44:50.971Z,0
2023-03-08T02:49:51.258Z,0
2023-03-08T02:54:49.027Z,0
2023-03-08T02:59:15.944Z,0
2023-03-08T03:04:14.848Z,0
2023-03-08T03:09:15.354Z,0
2023-03-08T03:14:14.141Z,0
2023-03-08T03:19:13.425Z,0
2023-03-08T03:24:14.602Z,0
2023-03-08T03:29:14.074Z,0
2023-03-08T03:34:14.401Z,0
2023-03-08T03:39:11.014Z,0
2023-03-08T03:44:10.826Z,0
2023-03-08T03:49:10.473Z,0
2023-03-08T03:54:10.079Z,0
2023-03-08T03:58:54.419Z,0
2023-03-08T04:03:55.000Z,0
2023-03-08T04:08:54.597Z,0
2023-03-08T04:13:56.531Z,0
2023-03-08T04:18:51.894Z,0
2023-03-08T04:23:52.595Z,0
2023-03-08T04:28:51.121Z,0
2023-03-08T04:33:50.394Z,0
2023-03-08T04:38:50.065Z,0
2023-03-08T04:43:50.205Z,0
2023-03-08T04:48:49.511Z,0
2023-03-08T04:53:51.003Z,0
2023-03-08T04:58:47.058Z,0
2023-03-08T05:03:47.344Z,0
2023-03-08T05:08:46.681Z,0
2023-03-08T05:13:46.739Z,0
2023-03-08T05:18:55.386Z,0
2023-03-08T05:23:54.484Z,0
2023-03-08T05:28:54.524Z,0
2023-03-08T05:33:53.459Z,0
2023-03-08T05:38:54.037Z,0
2023-03-08T05:43:53.701Z,0
2023-03-08T05:48:54.198Z,0
2023-03-08T05:53:51.140Z,0
2023-03-08T05:58:51.411Z,0
2023-03-08T06:00:12.414Z,0
2023-03-08T06:05:11.535Z,0
2023-03-08T06:10:11.554Z,0
2023-03-08T06:15:11.397Z,0
2023-03-08T06:20:12.783Z,0.01
2023-03-08T06:25:08.661Z,0.01
2023-03-08T06:30:08.792Z,0.01
2023-03-08T06:35:08.248Z,0.01
2023-03-08T06:40:08.254Z,0.01
2023-03-08T06:45:08.380Z,0.01
2023-03-08T06:50:05.878Z,0.01
2023-03-08T06:55:04.910Z,0.01
2023-03-08T06:59:25.735Z,0.01
2023-03-08T07:04:25.695Z,0.01
2023-03-08T07:09:25.246Z,0.01
2023-03-08T07:14:25.279Z,0.01
2023-03-08T07:19:24.924Z,0.01
2023-03-08T07:24:26.016Z,0.01
2023-03-08T07:29:23.253Z,0.01
2023-03-08T07:34:22.724Z,0.01
2023-03-08T07:39:23.015Z,0.01
2023-03-08T07:44:22.240Z,0.02
2023-03-08T07:49:21.873Z,0.02
2023-03-08T07:54:25.018Z,0.03
2023-03-08T07:59:12.479Z,0.04
2023-03-08T08:04:14.061Z,0.04
2023-03-08T08:09:09.912Z,0.04
2023-03-08T08:14:10.591Z,0.06
2023-03-08T08:19:09.669Z,0.06
2023-03-08T08:24:09.880Z,0.06
2023-03-08T08:29:07.525Z,0.07
2023-03-08T08:34:07.412Z,0.08
2023-03-08T08:39:06.931Z,0.09
2023-03-08T08:44:07.235Z,0.08
2023-03-08T08:49:05.034Z,0.09
2023-03-08T08:54:06.202Z,0.07
2023-03-08T08:58:52.212Z,0.07
2023-03-08T09:03:52.235Z,0.08
2023-03-08T09:08:53.604Z,0.09
2023-03-08T09:13:49.283Z,0.1
2023-03-08T09:18:49.383Z,0.11
2023-03-08T09:23:49.398Z,0.12
2023-03-08T09:28:49.145Z,0.11
2023-03-08T09:33:48.152Z,0.12
2023-03-08T09:38:48.091Z,0.14
2023-03-08T09:43:47.671Z,0.21
2023-03-08T09:48:48.948Z,0.13
2023-03-08T09:53:45.402Z,0.13
2023-03-08T09:58:45.750Z,0.13
2023-03-08T10:03:55.831Z,0.14
2023-03-08T10:08:55.957Z,0.14
2023-03-08T10:13:53.702Z,0.14
2023-03-08T10:18:53.757Z,0.12
2023-03-08T10:23:53.857Z,0.1
2023-03-08T10:28:50.882Z,0.15
2023-03-08T10:33:50.304Z,0.19
2023-03-08T10:38:50.883Z,0.14
2023-03-08T10:43:38.451Z,0.13
2023-03-08T10:48:38.381Z,0.11
2023-03-08T10:53:37.647Z,0.12
2023-03-08T10:58:38.246Z,0.11
2023-03-08T10:59:59.287Z,0.11
2023-03-08T11:04:59.549Z,0.12
2023-03-08T11:09:58.852Z,0.19
2023-03-08T11:14:59.168Z,0.14
2023-03-08T11:19:56.151Z,0.13
2023-03-08T11:24:56.355Z,0.11
2023-03-08T11:29:55.829Z,0.14
2023-03-08T11:34:55.932Z,0.14
2023-03-08T11:39:54.982Z,0.14
2023-03-08T11:44:55.296Z,0.15
2023-03-08T11:49:54.343Z,0.15
2023-03-08T11:54:54.443Z,0.18
2023-03-08T11:59:00.269Z,0.21
2023-03-08T12:03:57.760Z,0.21
2023-03-08T12:08:57.366Z,0.18
2023-03-08T12:13:56.529Z,0.13
2023-03-08T12:18:56.551Z,0.17
2023-03-08T12:23:54.744Z,0.11
2023-03-08T12:28:54.076Z,0.11
2023-03-08T12:33:54.479Z,0.14
2023-03-08T12:38:55.579Z,0.14
2023-03-08T12:43:52.462Z,0.15
2023-03-08T12:53:52.380Z,0.19
2023-03-08T12:58:51.825Z,0.25
2023-03-08T13:03:49.358Z,0.17
2023-03-08T13:08:49.269Z,0.18
2023-03-08T13:13:49.333Z,0.21
2023-03-08T13:18:49.715Z,0.1
2023-03-08T13:23:48.980Z,0.06
2023-03-08T13:28:51.285Z,0.06
2023-03-08T13:33:48.032Z,0.04
2023-03-08T13:38:47.448Z,0.09
2023-03-08T13:43:51.339Z,0.1
2023-03-08T13:48:55.184Z,0.07
2023-03-08T13:53:54.747Z,0.02
2023-03-08T13:58:54.880Z,0.04
2023-03-08T14:03:52.444Z,0.06
2023-03-08T14:08:52.988Z,0.05
2023-03-08T14:13:53.380Z,0.04
2023-03-08T14:18:50.380Z,0.05
2023-03-08T14:23:50.391Z,0.06
2023-03-08T14:28:50.453Z,0.09
2023-03-08T14:33:45.152Z,0.07
2023-03-08T14:38:37.941Z,0.07
2023-03-08T14:43:37.440Z,0.05
2023-03-08T14:48:37.408Z,0.04
2023-03-08T14:53:36.823Z,0.03
2023-03-08T14:58:36.306Z,0.05
2023-03-08T14:59:57.513Z,0.05
2023-03-08T15:04:57.455Z,0.04
2023-03-08T15:09:59.034Z,0.03
2023-03-08T15:14:55.495Z,0.02
2023-03-08T15:19:55.648Z,0.02
2023-03-08T15:24:55.513Z,0.02
2023-03-08T15:29:55.208Z,0.01
2023-03-08T15:34:53.084Z,0.01
2023-03-08T15:40:46.657Z,0.01
2023-03-08T15:44:51.775Z,0.01
2023-03-08T15:49:51.265Z,0.01
2023-03-08T15:54:50.296Z,0.01
2023-03-08T15:59:15.425Z,0.01
2023-03-08T16:04:13.751Z,0.01
2023-03-08T16:09:13.790Z,0.01
2023-03-08T16:14:12.804Z,0.01
2023-03-08T16:19:12.820Z,0.01
2023-03-08T16:24:12.386Z,0.01
2023-03-08T16:29:11.863Z,0.01
2023-03-08T16:34:12.402Z,0
2023-03-08T16:44:12.771Z,0
2023-03-08T16:49:09.220Z,0
2023-03-08T16:54:09.052Z,0
2023-03-08T16:58:54.766Z,0
2023-03-08T17:03:55.174Z,0
2023-03-08T17:08:52.452Z,0
2023-03-08T17:13:52.526Z,0
2023-03-08T17:18:51.681Z,0
2023-03-08T17:23:51.896Z,0
2023-03-08T17:28:48.998Z,0
2023-03-08T17:33:49.253Z,0
2023-03-08T17:38:48.302Z,0
2023-03-08T17:43:48.664Z,0
2023-03-08T17:48:46.282Z,0
2023-03-08T17:53:45.659Z,0
2023-03-08T17:58:55.328Z,0
2023-03-08T18:03:57.025Z,0
2023-03-08T18:08:54.154Z,0
2023-03-08T18:13:53.895Z,0
2023-03-08T18:18:53.724Z,0
2023-03-08T18:23:52.323Z,0
2023-03-08T18:28:51.416Z,0
2023-03-08T18:33:55.481Z,0
2023-03-08T18:38:50.410Z,0
2023-03-08T18:43:51.192Z,0
2023-03-08T18:48:50.480Z,0
2023-03-08T18:53:51.589Z,0
2023-03-08T18:58:38.013Z,0
2023-03-08T19:03:38.235Z,0
2023-03-08T19:08:46.930Z,0
2023-03-08T19:13:36.229Z,0
2023-03-08T19:18:35.966Z,0
2023-03-08T19:23:35.586Z,0
2023-03-08T19:28:34.785Z,0
2023-03-08T19:33:34.864Z,0
2023-03-08T19:38:34.252Z,0
2023-03-08T19:43:34.464Z,0
2023-03-08T19:48:33.851Z,0
2023-03-08T19:53:35.009Z,0
2023-03-08T19:58:31.525Z,0
2023-03-08T20:03:32.363Z,0
2023-03-08T20:08:31.368Z,0
2023-03-08T20:13:30.300Z,0
2023-03-08T20:18:30.100Z,0
2023-03-08T20:23:29.693Z,0
2023-03-08T20:28:29.258Z,0
2023-03-08T20:33:30.426Z,0
2023-03-08T20:38:26.734Z,0
2023-03-08T20:43:26.592Z,0
2023-03-08T20:48:26.586Z,0
2023-03-08T20:53:25.747Z,0
2023-03-08T20:58:25.470Z,0
2023-03-08T20:59:46.793Z,0
2023-03-08T21:04:46.772Z,0
2023-03-08T21:09:47.577Z,0
2023-03-08T21:14:54.475Z,0
2023-03-08T21:19:54.397Z,0
2023-03-08T21:24:54.738Z,0
2023-03-08T21:29:52.955Z,0
2023-03-08T21:34:52.822Z,0
2023-03-08T21:39:52.718Z,0
2023-03-08T21:44:51.634Z,0
2023-03-08T21:49:51.340Z,0
2023-03-08T21:54:51.247Z,0
2023-03-08T21:58:54.751Z,0
2023-03-08T22:03:51.467Z,0
2023-03-08T22:08:50.815Z,0
2023-03-08T22:13:50.309Z,0
2023-03-08T22:18:49.277Z,0
2023-03-08T22:23:52.267Z,0
2023-03-08T22:28:48.822Z,0
2023-03-08T22:33:48.703Z,0
2023-03-08T22:38:49.927Z,0
2023-03-08T22:43:46.338Z,0
2023-03-08T22:48:46.696Z,0
2023-03-08T22:53:46.011Z,0
2023-03-08T22:58:45.795Z,0
2023-03-08T23:03:54.781Z,0
2023-03-08T23:08:54.047Z,0
2023-03-08T23:13:54.047Z,0
2023-03-08T23:18:52.765Z,0
2023-03-08T23:23:53.186Z,0
2023-03-08T23:28:52.822Z,0
2023-03-08T23:33:53.851Z,0
2023-03-08T23:38:50.591Z,0
2023-03-08T23:43:50.487Z,0
2023-03-08T23:48:52.366Z,0
2023-03-08T23:53:38.534Z,0
2023-03-08T23:58:38.593Z,0
